Terminal Aerodrome Forecast
Issued by NWS Pocatello, ID

Home | Current Version | Previous Version | Text Only | Print | Product List | Glossary On
Versions: 1 2 3 4 5 6 7 8 9 10 11 12 13 14 15 16 17
000
FTUS45 KPIH 181120
TAFIDA
TAF
KIDA 181120Z 1812/1912 23005KT P6SM SKC
     FM181800 01012G22KT P6SM SCT100
     FM190200 36005KT P6SM SCT100=

USA.gov is the U.S. government's official web portal to all federal, state and local government web resources and services.